Royal City, Washington
Current Conditions -  °F | °C
As of 2:52 PM on Monday 22 Dec 2014 (Local Time) from KMWH Reporting Station
Clear Clear  
Wind Chill: 43°   Ceiling: Unl
Heat Index: 47°   Visibility: 10mi
Dew Point: 31°   Wind: 8mph
Humidity: 54%   Direction: 310°NW
Pressure: 30.29"   Gusts: NA
Location:  46.9°N, 119.63°W
Report Text: KMWH 222252Z 31007KT 10SM CLR 08/M01 A3029 RMK AO2 SLP264 T00831006
Loading
Personal Weather Stations






























Interactive Weather Map New forecast layout! Learn more

10-Day Weather Forecast

Advertisements
Track Severe Weather on mobile